createdAt,value
2024-05-09T00:00:40.418Z,9.93
2024-05-09T00:03:10.067Z,9.48
2024-05-09T00:05:39.997Z,10.50
2024-05-09T00:08:08.191Z,10.40
2024-05-09T00:10:37.705Z,9.82
2024-05-09T00:13:07.106Z,9.93
2024-05-09T00:15:35.323Z,10.65
2024-05-09T00:18:04.180Z,9.70
2024-05-09T00:20:37.792Z,10.65
2024-05-09T00:23:12.440Z,10.30
2024-05-09T00:25:42.344Z,10.82
2024-05-09T00:28:09.465Z,9.82
2024-05-09T00:30:37.374Z,10.85
2024-05-09T00:33:09.358Z,10.73
2024-05-09T00:35:38.434Z,9.95
2024-05-09T00:38:05.790Z,11.13
2024-05-09T00:40:40.773Z,10.48
2024-05-09T00:43:10.705Z,10.75
2024-05-09T00:45:37.956Z,11.07
2024-05-09T00:48:07.554Z,11.82
2024-05-09T00:50:38.801Z,9.80
2024-05-09T00:53:13.993Z,9.18
2024-05-09T00:55:41.799Z,10.38
2024-05-09T00:58:12.141Z,11.68
2024-05-09T01:00:41.147Z,10.82
2024-05-09T01:03:11.651Z,10.57
2024-05-09T01:05:40.854Z,11.57
2024-05-09T01:08:08.732Z,10.68
2024-05-09T01:10:36.999Z,11.15
2024-05-09T01:13:06.200Z,10.10
2024-05-09T01:15:34.725Z,10.55
2024-05-09T01:18:07.243Z,11.80
2024-05-09T01:20:41.270Z,11.90
2024-05-09T01:23:11.606Z,10.35
2024-05-09T01:25:38.815Z,10.85
2024-05-09T01:28:06.152Z,10.35
2024-05-09T01:30:36.242Z,11.50
2024-05-09T01:33:07.279Z,10.57
2024-05-09T01:35:36.329Z,10.80
2024-05-09T01:38:03.609Z,11.32
2024-05-09T01:40:37.256Z,11.68
2024-05-09T01:43:11.398Z,11.30
2024-05-09T01:45:39.942Z,11.63
2024-05-09T01:48:08.463Z,12.07
2024-05-09T01:50:40.405Z,11.48
2024-05-09T01:53:14.702Z,12.00
2024-05-09T01:55:42.459Z,11.55
2024-05-09T01:58:09.883Z,11.90
2024-05-09T02:00:41.015Z,12.00
2024-05-09T02:03:14.107Z,12.45
2024-05-09T02:05:47.988Z,11.25
2024-05-09T02:08:20.939Z,10.65
2024-05-09T02:10:49.814Z,10.77
2024-05-09T02:13:17.330Z,11.25
2024-05-09T02:15:44.512Z,11.32
2024-05-09T02:18:12.118Z,11.93
2024-05-09T02:20:41.305Z,11.40
2024-05-09T02:23:09.275Z,12.20
2024-05-09T02:25:36.385Z,12.35
2024-05-09T02:28:04.438Z,11.02
2024-05-09T02:30:39.292Z,12.15
2024-05-09T02:33:11.312Z,12.48
2024-05-09T02:35:40.589Z,11.80
2024-05-09T02:38:09.521Z,11.43
2024-05-09T02:40:38.900Z,11.95
2024-05-09T02:43:08.005Z,12.13
2024-05-09T02:45:40.443Z,12.23
2024-05-09T02:48:10.636Z,12.35
2024-05-09T02:50:40.566Z,11.65
2024-05-09T02:53:09.326Z,11.82
2024-05-09T02:55:37.654Z,12.18
2024-05-09T02:58:05.142Z,12.80
2024-05-09T03:00:38.913Z,12.38
2024-05-09T03:03:10.011Z,12.20
2024-05-09T03:05:39.060Z,11.88
2024-05-09T03:08:06.261Z,11.80
2024-05-09T03:10:36.563Z,12.40
2024-05-09T03:13:09.849Z,12.30
2024-05-09T03:15:37.291Z,12.65
2024-05-09T03:18:05.535Z,10.85
2024-05-09T03:20:35.148Z,9.95
2024-05-09T03:23:05.066Z,11.60
2024-05-09T03:25:32.568Z,12.25
2024-05-09T03:27:59.789Z,11.88
2024-05-09T03:30:38.516Z,11.60
2024-05-09T03:33:16.762Z,14.32
2024-05-09T03:35:44.439Z,12.73
2024-05-09T03:38:11.452Z,12.73
2024-05-09T03:40:45.505Z,12.48
2024-05-09T03:43:13.271Z,12.07
2024-05-09T03:45:40.381Z,13.02
2024-05-09T03:48:08.236Z,13.05
2024-05-09T03:50:36.538Z,12.43
2024-05-09T03:53:04.539Z,13.30
2024-05-09T03:55:31.980Z,12.02
2024-05-09T03:57:59.194Z,12.43
2024-05-09T04:00:34.713Z,11.63
2024-05-09T04:03:07.682Z,12.43
2024-05-09T04:05:38.014Z,12.18
2024-05-09T04:08:05.748Z,12.40
2024-05-09T04:10:34.312Z,13.40
2024-05-09T04:13:04.345Z,11.88
2024-05-09T04:15:32.238Z,12.85
2024-05-09T04:17:59.615Z,11.82
2024-05-09T04:20:37.304Z,10.45
2024-05-09T04:23:10.524Z,11.63
2024-05-09T04:25:37.900Z,11.63
2024-05-09T04:28:05.454Z,12.48
2024-05-09T04:30:38.141Z,13.63
2024-05-09T04:33:10.617Z,12.25
2024-05-09T04:35:39.644Z,11.68
2024-05-09T04:38:06.883Z,13.13
2024-05-09T04:40:36.670Z,12.48
2024-05-09T04:43:06.500Z,12.43
2024-05-09T04:45:33.784Z,12.10
2024-05-09T04:48:01.198Z,11.82
2024-05-09T04:50:36.531Z,11.88
2024-05-09T04:53:08.253Z,12.35
2024-05-09T04:55:36.771Z,11.10
2024-05-09T04:58:05.519Z,12.27
2024-05-09T05:00:37.069Z,11.15
2024-05-09T05:03:08.384Z,11.65
2024-05-09T05:05:41.132Z,12.05
2024-05-09T05:08:16.471Z,10.80
2024-05-09T05:10:45.334Z,12.13
2024-05-09T05:13:24.881Z,11.52
2024-05-09T05:15:57.692Z,11.80
2024-05-09T05:18:26.867Z,11.20
2024-05-09T05:20:55.621Z,11.40
2024-05-09T05:23:23.686Z,11.38
2024-05-09T05:25:54.516Z,11.30
2024-05-09T05:28:22.181Z,10.43
2024-05-09T05:30:49.190Z,10.90
2024-05-09T05:33:18.759Z,11.43
2024-05-09T05:35:46.170Z,11.73
2024-05-09T05:38:13.132Z,10.30
2024-05-09T05:40:41.036Z,10.52
2024-05-09T05:43:10.377Z,10.60
2024-05-09T05:45:38.279Z,9.80
2024-05-09T05:48:07.264Z,10.80
2024-05-09T05:50:37.239Z,9.05
2024-05-09T05:53:08.944Z,10.52
2024-05-09T05:55:37.680Z,10.23
2024-05-09T05:58:09.330Z,8.93
2024-05-09T06:00:39.130Z,9.20
2024-05-09T06:03:09.168Z,9.55
2024-05-09T06:05:39.411Z,8.68
2024-05-09T06:08:06.808Z,9.45
2024-05-09T06:10:38.719Z,9.52
2024-05-09T06:13:11.803Z,8.13
2024-05-09T06:15:39.952Z,10.20
2024-05-09T06:18:07.831Z,9.13
2024-05-09T06:20:37.456Z,9.95
2024-05-09T06:23:09.188Z,8.75
2024-05-09T06:25:36.894Z,8.90
2024-05-09T06:28:04.678Z,9.02
2024-05-09T06:30:41.103Z,8.90
2024-05-09T06:33:12.476Z,9.23
2024-05-09T06:35:41.670Z,9.27
2024-05-09T06:38:09.371Z,10.80
2024-05-09T06:40:40.548Z,9.10
2024-05-09T06:43:17.384Z,10.25
2024-05-09T06:45:48.616Z,9.35
2024-05-09T06:48:19.744Z,9.15
2024-05-09T06:50:47.975Z,8.95
2024-05-09T06:53:15.955Z,9.32
2024-05-09T06:55:43.280Z,9.43
2024-05-09T06:58:10.252Z,9.13
2024-05-09T07:00:40.074Z,9.48
2024-05-09T07:03:10.100Z,8.93
2024-05-09T07:05:40.392Z,8.20
2024-05-09T07:08:08.004Z,8.52
2024-05-09T07:10:36.453Z,7.70
2024-05-09T07:13:11.115Z,8.52
2024-05-09T07:15:38.490Z,8.20
2024-05-09T07:18:18.018Z,7.72
2024-05-09T07:20:47.287Z,7.68
2024-05-09T07:23:15.390Z,7.50
2024-05-09T07:25:42.632Z,7.72
2024-05-09T07:28:14.814Z,7.20
2024-05-09T07:30:42.449Z,6.70
2024-05-09T07:33:09.757Z,6.82
2024-05-09T07:35:37.522Z,6.90
2024-05-09T07:38:04.845Z,6.63
2024-05-09T07:40:36.160Z,5.90
2024-05-09T07:43:08.304Z,5.97
2024-05-09T07:52:37.881Z,5.43
2024-05-09T07:56:34.231Z,4.30
2024-05-09T07:59:01.297Z,5.53
2024-05-09T08:01:29.000Z,5.07
2024-05-09T08:03:56.274Z,5.18
2024-05-09T08:06:23.751Z,4.75
2024-05-09T08:08:50.749Z,4.88
2024-05-09T08:11:17.688Z,4.72
2024-05-09T08:13:45.420Z,5.15
2024-05-09T08:16:14.097Z,5.85
2024-05-09T08:18:42.159Z,5.63
2024-05-09T08:21:09.525Z,4.95
2024-05-09T08:23:36.446Z,6.15
2024-05-09T08:26:05.838Z,5.85
2024-05-09T08:28:32.778Z,5.75
2024-05-09T08:31:01.639Z,5.80
2024-05-09T08:33:32.140Z,5.25
2024-05-09T08:35:59.123Z,5.63
2024-05-09T08:38:25.945Z,5.35
2024-05-09T08:40:53.143Z,4.78
2024-05-09T08:43:20.602Z,6.07
2024-05-09T08:48:19.671Z,5.43
2024-05-09T08:50:48.938Z,5.20
2024-05-09T08:53:15.931Z,4.65
2024-05-09T08:55:44.625Z,4.70
2024-05-09T08:58:17.212Z,5.50
2024-05-09T09:00:45.995Z,6.00
2024-05-09T09:03:17.419Z,5.72
2024-05-09T09:06:05.248Z,5.65
2024-05-09T09:08:32.347Z,5.05
2024-05-09T09:11:00.117Z,5.32
2024-05-09T09:13:27.758Z,5.75
2024-05-09T09:15:58.455Z,5.35
2024-05-09T09:18:27.049Z,4.95
2024-05-09T09:20:54.698Z,6.10
2024-05-09T09:23:21.824Z,5.43
2024-05-09T09:25:49.171Z,5.30
2024-05-09T09:28:16.370Z,5.30
2024-05-09T09:30:44.427Z,5.28
2024-05-09T09:33:12.116Z,5.10
2024-05-09T09:35:42.384Z,5.07
2024-05-09T09:38:18.187Z,4.88
2024-05-09T09:40:49.950Z,4.70
2024-05-09T09:43:22.403Z,4.57
2024-05-09T09:45:51.672Z,4.07
2024-05-09T09:48:21.262Z,4.82
2024-05-09T09:50:50.071Z,5.57
2024-05-09T09:53:17.832Z,5.47
2024-05-09T09:55:46.082Z,5.63
2024-05-09T09:58:16.031Z,4.75
2024-05-09T10:00:43.839Z,5.43
2024-05-09T10:03:10.932Z,5.15
2024-05-09T10:05:39.344Z,4.97
2024-05-09T10:08:09.881Z,4.85
2024-05-09T10:10:36.970Z,4.97
2024-05-09T10:13:05.127Z,5.20
2024-05-09T10:15:52.292Z,5.13
2024-05-09T10:18:28.063Z,5.68
2024-05-09T10:21:00.854Z,5.18
2024-05-09T10:23:34.377Z,5.25
2024-05-09T10:26:03.514Z,4.97
2024-05-09T10:28:33.858Z,5.63
2024-05-09T10:31:11.012Z,5.05
2024-05-09T10:33:52.434Z,4.93
2024-05-09T10:36:20.977Z,5.63
2024-05-09T10:38:54.484Z,5.30
2024-05-09T10:41:22.337Z,5.63
2024-05-09T10:43:49.994Z,5.50
2024-05-09T10:46:19.133Z,5.68
2024-05-09T10:48:47.683Z,6.15
2024-05-09T10:51:15.713Z,5.68
2024-05-09T10:53:46.991Z,5.30
2024-05-09T10:56:14.806Z,6.30
2024-05-09T10:58:41.969Z,5.88
2024-05-09T11:01:09.792Z,5.95
2024-05-09T11:03:37.914Z,5.88
2024-05-09T11:06:08.211Z,5.60
2024-05-09T11:08:36.339Z,5.85
2024-05-09T11:11:10.587Z,6.30
2024-05-09T11:13:39.057Z,6.25
2024-05-09T11:16:26.290Z,5.55
2024-05-09T11:18:55.759Z,6.00
2024-05-09T11:21:24.115Z,5.70
2024-05-09T11:23:51.557Z,6.25
2024-05-09T11:26:21.480Z,5.53
2024-05-09T11:28:50.311Z,5.57
2024-05-09T11:31:17.629Z,6.13
2024-05-09T11:33:45.735Z,6.38
2024-05-09T11:36:12.955Z,6.05
2024-05-09T11:38:40.379Z,6.30
2024-05-09T11:41:07.495Z,6.47
2024-05-09T11:43:34.514Z,5.93
2024-05-09T11:46:02.833Z,5.93
2024-05-09T11:48:33.161Z,5.40
2024-05-09T11:51:00.188Z,6.05
2024-05-09T11:53:33.776Z,6.47
2024-05-09T11:56:00.719Z,6.40
2024-05-09T11:58:28.922Z,6.00
2024-05-09T12:00:57.157Z,6.18
2024-05-09T12:03:24.329Z,7.03
2024-05-09T12:05:51.472Z,6.32
2024-05-09T12:08:18.724Z,6.63
2024-05-09T12:10:46.043Z,7.70
2024-05-09T12:13:13.166Z,6.10
2024-05-09T12:15:40.125Z,6.30
2024-05-09T12:18:08.135Z,6.93
2024-05-09T12:20:38.760Z,6.38
2024-05-09T12:23:09.626Z,5.63
2024-05-09T12:25:38.188Z,5.95
2024-05-09T12:28:05.781Z,6.28
2024-05-09T12:30:37.544Z,5.35
2024-05-09T12:33:08.423Z,6.57
2024-05-09T12:35:35.648Z,5.82
2024-05-09T12:38:03.744Z,6.93
2024-05-09T12:40:36.496Z,6.53
2024-05-09T12:43:08.162Z,6.20
2024-05-09T12:45:36.208Z,6.00
2024-05-09T12:48:07.044Z,6.38
2024-05-09T12:50:34.843Z,6.45
2024-05-09T12:53:03.362Z,5.60
2024-05-09T12:55:37.134Z,5.93
2024-05-09T12:58:11.645Z,5.72
2024-05-09T13:00:38.795Z,6.65
2024-05-09T13:03:06.140Z,5.65
2024-05-09T13:05:33.328Z,6.15
2024-05-09T13:08:00.936Z,5.65
2024-05-09T13:10:32.394Z,5.80
2024-05-09T13:13:01.879Z,5.97
2024-05-09T13:15:34.316Z,5.13
2024-05-09T13:18:03.215Z,6.13
2024-05-09T13:20:34.597Z,6.03
2024-05-09T13:23:08.075Z,4.78
2024-05-09T13:25:36.293Z,5.43
2024-05-09T13:28:04.251Z,5.65
2024-05-09T13:30:39.195Z,5.38
2024-05-09T13:33:10.292Z,5.20
2024-05-09T13:35:37.980Z,5.60
2024-05-09T13:38:05.471Z,5.80
2024-05-09T13:40:36.590Z,5.47
2024-05-09T13:43:05.024Z,6.07
2024-05-09T13:45:32.583Z,5.65
2024-05-09T13:47:59.986Z,5.40
2024-05-09T13:50:34.062Z,4.80
2024-05-09T13:53:06.698Z,5.63
2024-05-09T13:55:35.416Z,5.43
2024-05-09T13:58:03.838Z,5.03
2024-05-09T14:00:42.536Z,5.07
2024-05-09T14:03:15.365Z,4.28
2024-05-09T14:05:43.139Z,4.72
2024-05-09T14:08:10.210Z,5.35
2024-05-09T14:10:43.996Z,5.45
2024-05-09T14:13:11.745Z,5.00
2024-05-09T14:15:38.908Z,4.78
2024-05-09T14:18:09.500Z,6.40
2024-05-09T14:20:38.430Z,4.65
2024-05-09T14:23:05.369Z,4.90
2024-05-09T14:25:36.519Z,4.45
2024-05-09T14:28:06.397Z,4.45
2024-05-09T14:30:37.282Z,4.50
2024-05-09T14:33:06.760Z,9.52
2024-05-09T14:35:34.581Z,8.77
2024-05-09T14:38:03.734Z,5.25
2024-05-09T14:43:20.536Z,3.90
2024-05-09T14:45:47.646Z,4.28
2024-05-09T14:48:15.932Z,4.13
2024-05-09T14:50:43.238Z,4.25
2024-05-09T14:53:11.638Z,3.95
2024-05-09T14:55:40.607Z,3.60
2024-05-09T14:58:12.926Z,4.50
2024-05-09T15:00:46.160Z,4.20
2024-05-09T15:03:21.135Z,3.97
2024-05-09T15:05:49.268Z,4.20
2024-05-09T15:08:18.331Z,4.78
2024-05-09T15:10:46.301Z,4.22
2024-05-09T15:13:16.241Z,4.43
2024-05-09T15:15:43.942Z,4.45
2024-05-09T15:18:11.150Z,4.18
2024-05-09T15:23:07.497Z,4.50
2024-05-09T15:25:35.979Z,5.60
2024-05-09T15:28:04.611Z,4.20
2024-05-09T15:30:33.636Z,4.90
2024-05-09T15:33:07.320Z,4.38
2024-05-09T15:35:35.290Z,5.05
2024-05-09T15:38:03.735Z,5.18
2024-05-09T15:40:38.260Z,7.65
2024-05-09T15:43:09.170Z,6.25
2024-05-09T15:45:41.372Z,5.38
2024-05-09T15:48:09.887Z,5.80
2024-05-09T15:50:40.822Z,4.40
2024-05-09T15:53:11.382Z,4.28
2024-05-09T15:55:39.185Z,4.53
2024-05-09T15:58:07.713Z,4.63
2024-05-09T16:00:39.565Z,3.90
2024-05-09T16:03:10.499Z,4.53
2024-05-09T16:05:38.522Z,4.07
2024-05-09T16:08:06.597Z,4.40
2024-05-09T16:10:34.903Z,4.47
2024-05-09T16:13:04.233Z,4.95
2024-05-09T16:15:31.597Z,3.75
2024-05-09T16:17:58.969Z,4.03
2024-05-09T16:20:34.744Z,3.88
2024-05-09T16:23:08.666Z,3.60
2024-05-09T16:25:36.297Z,3.65
2024-05-09T16:28:07.418Z,3.95
2024-05-09T16:30:37.339Z,4.00
2024-05-09T16:33:05.438Z,4.05
2024-05-09T16:35:32.958Z,7.32
2024-05-09T16:38:05.829Z,4.43
2024-05-09T16:40:38.806Z,4.55
2024-05-09T16:43:12.356Z,4.07
2024-05-09T16:45:41.088Z,3.47
2024-05-09T16:48:08.953Z,3.40
2024-05-09T16:50:36.744Z,3.63
2024-05-09T16:53:05.474Z,3.63
2024-05-09T16:55:33.271Z,3.58
2024-05-09T16:58:01.039Z,3.92
2024-05-09T17:00:38.314Z,4.00
2024-05-09T17:03:10.204Z,3.75
2024-05-09T17:05:38.285Z,3.70
2024-05-09T17:08:06.199Z,2.72
2024-05-09T17:10:34.999Z,4.03
2024-05-09T17:13:04.989Z,4.32
2024-05-09T17:15:33.763Z,3.50
2024-05-09T17:18:03.045Z,3.22
2024-05-09T17:20:34.478Z,3.42
2024-05-09T17:23:05.684Z,3.00
2024-05-09T17:25:33.687Z,3.42
2024-05-09T17:28:07.183Z,3.00
2024-05-09T17:30:37.781Z,2.85
2024-05-09T17:33:08.668Z,2.83
2024-05-09T17:35:36.996Z,2.90
2024-05-09T17:38:05.562Z,3.20
2024-05-09T17:40:35.893Z,3.58
2024-05-09T17:43:06.433Z,3.58
2024-05-09T17:45:34.942Z,3.10
2024-05-09T17:48:03.825Z,3.35
2024-05-09T17:50:35.360Z,3.42
2024-05-09T17:53:05.012Z,3.40
2024-05-09T17:55:32.487Z,2.92
2024-05-09T17:57:59.740Z,3.47
2024-05-09T18:02:56.792Z,3.55
2024-05-09T18:05:23.951Z,3.40
2024-05-09T18:07:51.024Z,3.38
2024-05-09T18:10:25.765Z,3.60
2024-05-09T18:12:59.758Z,4.00
2024-05-09T18:15:26.769Z,3.60
2024-05-09T18:17:53.902Z,3.10
2024-05-09T18:20:32.087Z,3.65
2024-05-09T18:23:06.964Z,4.10
2024-05-09T18:25:34.072Z,4.50
2024-05-09T18:28:03.926Z,4.53
2024-05-09T18:30:34.581Z,4.32
2024-05-09T18:33:06.437Z,4.13
2024-05-09T18:35:35.186Z,4.03
2024-05-09T18:38:04.162Z,4.10
2024-05-09T18:40:35.142Z,4.15
2024-05-09T18:43:07.192Z,4.75
2024-05-09T18:45:38.184Z,5.13
2024-05-09T18:48:07.389Z,5.22
2024-05-09T18:50:38.798Z,5.15
2024-05-09T18:53:13.449Z,5.00
2024-05-09T18:55:42.453Z,5.47
2024-05-09T18:58:09.827Z,5.05
2024-05-09T19:00:39.855Z,5.38
2024-05-09T19:03:12.370Z,5.63
2024-05-09T19:05:43.156Z,5.95
2024-05-09T19:08:11.608Z,5.40
2024-05-09T19:10:39.236Z,5.13
2024-05-09T19:13:11.544Z,5.43
2024-05-09T19:15:41.280Z,4.95
2024-05-09T19:18:10.484Z,4.65
2024-05-09T19:20:38.328Z,4.72
2024-05-09T19:23:06.841Z,4.85
2024-05-09T19:25:35.379Z,4.90
2024-05-09T19:28:03.539Z,4.82
2024-05-09T19:30:38.449Z,4.80
2024-05-09T19:33:09.475Z,4.55
2024-05-09T19:35:37.241Z,5.05
2024-05-09T19:38:05.440Z,5.85
2024-05-09T19:40:34.224Z,5.65
2024-05-09T19:43:05.485Z,5.80
2024-05-09T19:45:35.471Z,5.85
2024-05-09T19:48:04.905Z,5.32
2024-05-09T19:50:40.866Z,4.57
2024-05-09T19:53:11.545Z,5.15
2024-05-09T19:55:38.910Z,5.55
2024-05-09T19:58:07.570Z,5.53
2024-05-09T20:00:38.631Z,5.50
2024-05-09T20:03:08.872Z,5.50
2024-05-09T20:05:37.133Z,5.60
2024-05-09T20:08:05.198Z,5.60
2024-05-09T20:10:34.480Z,5.22
2024-05-09T20:13:04.959Z,5.13
2024-05-09T20:15:34.821Z,5.32
2024-05-09T20:18:04.987Z,5.65
2024-05-09T20:20:39.658Z,5.65
2024-05-09T20:23:11.016Z,5.43
2024-05-09T20:25:38.370Z,6.15
2024-05-09T20:28:06.177Z,5.18
2024-05-09T20:30:35.172Z,5.68
2024-05-09T20:33:05.030Z,5.32
2024-05-09T20:35:33.605Z,5.78
2024-05-09T20:38:01.559Z,5.57
2024-05-09T20:40:33.826Z,5.90
2024-05-09T20:43:05.070Z,5.43
2024-05-09T20:45:32.400Z,6.15
2024-05-09T20:47:59.731Z,5.97
2024-05-09T20:50:37.131Z,5.68
2024-05-09T20:53:15.123Z,6.40
2024-05-09T20:55:44.086Z,5.70
2024-05-09T20:58:12.431Z,6.32
2024-05-09T21:00:43.244Z,6.75
2024-05-09T21:03:14.615Z,6.38
2024-05-09T21:05:43.083Z,6.50
2024-05-09T21:08:10.222Z,5.72
2024-05-09T21:10:37.710Z,6.55
2024-05-09T21:13:06.290Z,5.53
2024-05-09T21:15:34.923Z,6.78
2024-05-09T21:18:03.595Z,5.78
2024-05-09T21:20:33.852Z,6.05
2024-05-09T21:23:03.773Z,5.72
2024-05-09T21:25:31.589Z,5.57
2024-05-09T21:27:58.605Z,5.85
2024-05-09T21:30:32.687Z,6.80
2024-05-09T21:33:09.649Z,5.93
2024-05-09T21:35:38.349Z,5.32
2024-05-09T21:38:05.762Z,5.93
2024-05-09T21:40:35.403Z,5.97
2024-05-09T21:43:04.901Z,6.13
2024-05-09T21:45:33.629Z,6.20
2024-05-09T21:48:05.494Z,5.72
2024-05-09T21:50:39.411Z,5.47
2024-05-09T21:53:08.877Z,6.78
2024-05-09T21:55:35.983Z,6.18
2024-05-09T21:58:03.741Z,5.55
2024-05-09T22:00:36.716Z,5.68
2024-05-09T22:03:09.611Z,6.20
2024-05-09T22:05:42.170Z,6.43
2024-05-09T22:08:10.671Z,5.82
2024-05-09T22:10:37.714Z,5.72
2024-05-09T22:13:06.265Z,5.80
2024-05-09T22:15:36.627Z,6.53
2024-05-09T22:18:06.096Z,6.50
2024-05-09T22:20:37.415Z,6.57
2024-05-09T22:23:06.486Z,6.60
2024-05-09T22:25:33.882Z,6.00
2024-05-09T22:28:03.848Z,6.93
2024-05-09T22:30:36.057Z,6.25
2024-05-09T22:33:10.691Z,6.00
2024-05-09T22:35:40.413Z,6.60
2024-05-09T22:38:07.800Z,6.57
2024-05-09T22:40:45.446Z,6.30
2024-05-09T22:43:24.072Z,6.80
2024-05-09T22:45:54.575Z,6.50
2024-05-09T22:48:22.277Z,6.82
2024-05-09T22:50:49.451Z,6.63
2024-05-09T22:53:16.998Z,6.10
2024-05-09T22:55:44.156Z,6.35
2024-05-09T22:58:11.357Z,6.50
2024-05-09T23:00:40.751Z,6.15
2024-05-09T23:03:07.985Z,6.85
2024-05-09T23:05:35.194Z,6.35
2024-05-09T23:08:02.880Z,6.82
2024-05-09T23:10:35.818Z,6.53
2024-05-09T23:13:05.943Z,6.35
2024-05-09T23:15:33.284Z,6.75
2024-05-09T23:18:00.609Z,6.13
2024-05-09T23:20:36.410Z,6.47
2024-05-09T23:23:10.898Z,6.13
2024-05-09T23:25:42.297Z,6.97
2024-05-09T23:28:10.389Z,6.90
2024-05-09T23:30:40.237Z,6.18
2024-05-09T23:33:11.420Z,6.80
2024-05-09T23:35:40.806Z,6.50
2024-05-09T23:38:07.865Z,6.15
2024-05-09T23:40:38.840Z,6.43
2024-05-09T23:43:09.626Z,7.10
2024-05-09T23:45:37.171Z,6.13
2024-05-09T23:48:05.533Z,8.20
2024-05-09T23:50:37.503Z,6.55
2024-05-09T23:53:07.996Z,6.47
2024-05-09T23:55:36.241Z,6.97
2024-05-09T23:58:04.634Z,5.88
